Terminal Aerodrome Forecast
Issued by NWS Shreveport, LA

Home | Current Version | Previous Version | Text Only | Print | Product List | Glossary On
Versions: 1 2 3 4 5 6 7 8 9 10 11 12 13
266
FTUS44 KSHV 240522
TAFTXK
TAF
KTXK 240522Z 2406/2506 12003KT P6SM SKC
     FM241500 15004KT P6SM SKC
     FM241700 14006KT P6SM SCT045
     FM250000 12005KT P6SM SCT050=

USA.gov is the U.S. government's official web portal to all federal, state and local government web resources and services.